Time;durP1;ratioP1;P1;durP2;ratioP2;P2;SDS_P1;SDS_P2;PMS_P1;PMS_P2;Temp;Humidity;BMP_temperature;BMP_pressure;BME280_temperature;BME280_humidity;BME280_pressure;Samples;Min_cycle;Max_cycle;Signal;HPM_P1;HPM_P2
2022/09/19 00:01:23;;;;;;;0.10;0.10;;;;;;;;;;4166094;28;20112;-49
2022/09/19 00:03:24;;;;;;;0.10;0.10;;;;;;;;;;4165138;28;20103;-48
2022/09/19 00:05:25;;;;;;;0.10;0.10;;;;;;;;;;4165683;28;20515;-49
2022/09/19 00:07:27;;;;;;;0.10;0.10;;;;;;;;;;4165503;28;20053;-50
2022/09/19 00:09:30;;;;;;;0.10;0.10;;;;;;;;;;4165687;28;20481;-51
2022/09/19 00:11:33;;;;;;;0.00;0.00;;;;;;;;;;4165914;28;20053;-50
2022/09/19 00:13:35;;;;;;;0.10;0.10;;;;;;;;;;4165491;28;20123;-49
2022/09/19 00:15:46;;;;;;;0.10;0.10;;;;;;;;;;4165980;28;20068;-49
2022/09/19 00:17:49;;;;;;;0.73;0.00;;;;;;;;;;4165263;28;20045;-49
2022/09/19 00:19:51;;;;;;;0.10;0.10;;;;;;;;;;4165584;28;20412;-50
2022/09/19 00:21:55;;;;;;;0.00;0.00;;;;;;;;;;4165518;28;20129;-51
2022/09/19 00:26:17;;;;;;;0.10;0.10;;;;;;;;;;4165390;28;20053;-50
2022/09/19 00:28:18;;;;;;;0.10;0.10;;;;;;;;;;4165179;28;20068;-48
2022/09/19 00:30:19;;;;;;;0.00;0.00;;;;;;;;;;4165591;28;20064;-49
2022/09/19 00:32:22;;;;;;;0.10;0.10;;;;;;;;;;4163524;28;20053;-49
2022/09/19 00:34:25;;;;;;;0.05;0.05;;;;;;;;;;4165456;28;20057;-50
2022/09/19 00:36:27;;;;;;;0.10;0.10;;;;;;;;;;4165163;28;20053;-48
2022/09/19 00:38:30;;;;;;;0.10;0.10;;;;;;;;;;4165478;28;20061;-49
2022/09/19 00:40:31;;;;;;;0.38;0.10;;;;;;;;;;4163849;28;20061;-51
2022/09/19 00:42:34;;;;;;;0.05;0.05;;;;;;;;;;4163988;28;20055;-48
2022/09/19 00:44:35;;;;;;;0.10;0.10;;;;;;;;;;4164109;28;20053;-49
2022/09/19 00:46:37;;;;;;;0.10;0.10;;;;;;;;;;4164915;28;20061;-50
2022/09/19 00:48:41;;;;;;;0.13;0.10;;;;;;;;;;4163318;28;20076;-49
2022/09/19 00:50:44;;;;;;;0.00;0.00;;;;;;;;;;4147802;28;20100;-49
2022/09/19 00:52:52;;;;;;;0.10;0.10;;;;;;;;;;4164950;28;20053;-49
2022/09/19 00:54:56;;;;;;;0.00;0.00;;;;;;;;;;4165016;28;20057;-48
2022/09/19 00:56:59;;;;;;;0.10;0.00;;;;;;;;;;4163694;28;20343;-49
2022/09/19 00:59:02;;;;;;;0.10;0.10;;;;;;;;;;4163473;28;20083;-49
2022/09/19 01:01:03;;;;;;;0.10;0.10;;;;;;;;;;4164676;28;20487;-48
2022/09/19 01:03:07;;;;;;;0.10;0.10;;;;;;;;;;4164198;28;20053;-50
2022/09/19 01:05:09;;;;;;;0.20;0.10;;;;;;;;;;4164657;28;20053;-50
2022/09/19 01:07:18;;;;;;;0.10;0.10;;;;;;;;;;4164298;28;20124;-49
2022/09/19 01:09:38;;;;;;;0.10;0.10;;;;;;;;;;4163412;28;20061;-48
2022/09/19 01:11:57;;;;;;;;;;;;;;;;;;4165378;28;20077;-49
2022/09/19 01:14:28;;;;;;;0.15;0.15;;;;;;;;;;4163315;28;19987;-49
2022/09/19 01:16:37;;;;;;;0.05;0.05;;;;;;;;;;4164544;28;20134;-48
2022/09/19 01:18:46;;;;;;;0.00;0.00;;;;;;;;;;4162764;28;20080;-49
2022/09/19 01:23:36;;;;;;;0.10;0.10;;;;;;;;;;4164715;28;20095;-49
2022/09/19 01:25:46;;;;;;;1.30;0.20;;;;;;;;;;4146897;28;20068;-49
2022/09/19 01:27:56;;;;;;;0.10;0.10;;;;;;;;;;4164324;28;20050;-49
2022/09/19 01:30:10;;;;;;;0.10;0.10;;;;;;;;;;4146822;28;20108;-49
2022/09/19 01:32:22;;;;;;;0.20;0.20;;;;;;;;;;4162864;28;20080;-49
2022/09/19 01:34:33;;;;;;;0.20;0.10;;;;;;;;;;4163366;28;20057;-47
2022/09/19 01:36:38;;;;;;;;;;;;;;;;;;4163658;28;20065;-49
2022/09/19 01:38:42;;;;;;;0.10;0.10;;;;;;;;;;4130483;28;20095;-48
2022/09/19 01:40:43;;;;;;;0.05;0.05;;;;;;;;;;4146599;28;20418;-49
2022/09/19 01:42:57;;;;;;;0.05;0.05;;;;;;;;;;4162840;28;20087;-49
2022/09/19 01:44:59;;;;;;;0.17;0.10;;;;;;;;;;4147280;28;20054;-50
2022/09/19 01:47:22;;;;;;;0.10;0.10;;;;;;;;;;4162929;28;20057;-48
2022/09/19 01:49:46;;;;;;;0.10;0.10;;;;;;;;;;4146325;28;20061;-48
2022/09/19 01:51:52;;;;;;;0.10;0.10;;;;;;;;;;4162900;28;20053;-48
2022/09/19 01:53:53;;;;;;;0.08;0.05;;;;;;;;;;4146521;28;20799;-48
2022/09/19 01:56:28;;;;;;;0.10;0.10;;;;;;;;;;4162827;28;20120;-49
2022/09/19 01:58:49;;;;;;;0.15;0.10;;;;;;;;;;4146560;28;20081;-48
2022/09/19 02:01:14;;;;;;;0.10;0.10;;;;;;;;;;4162737;28;20099;-50
2022/09/19 02:03:36;;;;;;;0.28;0.10;;;;;;;;;;4161711;28;20460;-52
2022/09/19 02:06:09;;;;;;;0.10;0.10;;;;;;;;;;4146618;28;20394;-49
2022/09/19 02:08:16;;;;;;;0.10;0.10;;;;;;;;;;4162397;28;20069;-49
2022/09/19 02:10:21;;;;;;;0.00;0.00;;;;;;;;;;4162375;28;20064;-50
2022/09/19 02:12:25;;;;;;;0.10;0.10;;;;;;;;;;4162385;28;20457;-50
2022/09/19 02:14:30;;;;;;;0.00;0.00;;;;;;;;;;4145978;28;20104;-50
2022/09/19 02:16:45;;;;;;;0.10;0.10;;;;;;;;;;4162587;28;20118;-52
2022/09/19 02:18:58;;;;;;;0.10;0.10;;;;;;;;;;4163099;28;20107;-48
2022/09/19 02:21:05;;;;;;;0.03;0.03;;;;;;;;;;4145965;28;20088;-49
2022/09/19 02:23:14;;;;;;;0.20;0.20;;;;;;;;;;4162154;28;20386;-49
2022/09/19 02:25:20;;;;;;;0.05;0.05;;;;;;;;;;4162284;28;20061;-51
2022/09/19 02:27:27;;;;;;;0.10;0.10;;;;;;;;;;4146032;28;20434;-48
2022/09/19 02:29:30;;;;;;;0.10;0.10;;;;;;;;;;4162060;28;20476;-50
2022/09/19 02:31:32;;;;;;;0.00;0.00;;;;;;;;;;4162318;28;20061;-49
2022/09/19 02:33:35;;;;;;;0.10;0.10;;;;;;;;;;4161777;28;20107;-49
2022/09/19 02:36:01;;;;;;;0.00;0.00;;;;;;;;;;4161827;28;20084;-49
2022/09/19 02:38:24;;;;;;;0.40;0.30;;;;;;;;;;4145659;28;20472;-49
2022/09/19 02:40:32;;;;;;;0.00;0.00;;;;;;;;;;4146079;28;20050;-49
2022/09/19 02:42:44;;;;;;;0.10;0.10;;;;;;;;;;4145864;28;20397;-49
2022/09/19 02:45:05;;;;;;;0.50;0.10;;;;;;;;;;4162249;28;20459;-49
2022/09/19 02:47:21;;;;;;;0.20;0.10;;;;;;;;;;4145678;28;20092;-47
2022/09/19 02:49:38;;;;;;;0.20;0.20;;;;;;;;;;4145916;28;20053;-49
2022/09/19 02:51:46;;;;;;;0.10;0.10;;;;;;;;;;4145739;28;20050;-49
2022/09/19 02:53:53;;;;;;;0.13;0.10;;;;;;;;;;4145375;28;20508;-49
2022/09/19 02:56:01;;;;;;;0.10;0.10;;;;;;;;;;4145535;28;20058;-50
2022/09/19 02:58:02;;;;;;;0.20;0.10;;;;;;;;;;4161572;28;20095;-49
2022/09/19 03:00:06;;;;;;;0.03;0.03;;;;;;;;;;4151394;28;20111;-49
2022/09/19 03:02:20;;;;;;;0.10;0.10;;;;;;;;;;4145672;28;20088;-50
2022/09/19 03:04:29;;;;;;;0.10;0.10;;;;;;;;;;4145174;28;20066;-47
2022/09/19 03:06:36;;;;;;;;;;;;;;;;;;4161392;28;20580;-49
2022/09/19 03:08:38;;;;;;;0.10;0.10;;;;;;;;;;4162707;28;19923;-47
2022/09/19 03:10:46;;;;;;;0.10;0.10;;;;;;;;;;4145828;28;20053;-50
2022/09/19 03:13:02;;;;;;;0.10;0.10;;;;;;;;;;4130871;28;20054;-51
2022/09/19 03:15:06;;;;;;;0.10;0.10;;;;;;;;;;4145405;28;20112;-48
2022/09/19 03:17:08;;;;;;;0.10;0.10;;;;;;;;;;4161351;28;20127;-49
2022/09/19 03:19:09;;;;;;;0.52;0.10;;;;;;;;;;4161519;28;20054;-50
2022/09/19 03:21:11;;;;;;;0.10;0.10;;;;;;;;;;4161642;28;20053;-49
2022/09/19 03:23:19;;;;;;;0.00;0.00;;;;;;;;;;4145278;28;20536;-48
2022/09/19 03:25:21;;;;;;;0.10;0.08;;;;;;;;;;4145489;28;20053;-50
2022/09/19 03:27:24;;;;;;;0.85;0.15;;;;;;;;;;4161587;28;20088;-49
2022/09/19 03:29:26;;;;;;;0.20;0.13;;;;;;;;;;4160755;28;20076;-48
2022/09/19 03:31:30;;;;;;;0.10;0.10;;;;;;;;;;4161668;28;20053;-49
2022/09/19 03:33:31;;;;;;;0.10;0.10;;;;;;;;;;4160827;28;20069;-49
2022/09/19 03:35:36;;;;;;;0.10;0.10;;;;;;;;;;4161670;28;20169;-51
2022/09/19 03:37:37;;;;;;;0.08;0.05;;;;;;;;;;4161145;28;20060;-49
2022/09/19 03:39:39;;;;;;;0.17;0.10;;;;;;;;;;4161660;28;20092;-50
2022/09/19 03:41:41;;;;;;;0.10;0.10;;;;;;;;;;4162357;28;20515;-51
2022/09/19 03:43:43;;;;;;;0.03;0.03;;;;;;;;;;4161167;28;20053;-51
2022/09/19 03:45:44;;;;;;;0.10;0.10;;;;;;;;;;4161337;28;20060;-50
2022/09/19 03:47:46;;;;;;;0.10;0.10;;;;;;;;;;4160746;28;20531;-52
2022/09/19 03:49:51;;;;;;;0.10;0.10;;;;;;;;;;4161058;28;20049;-51
2022/09/19 03:51:53;;;;;;;0.10;0.10;;;;;;;;;;4161281;28;20389;-47
2022/09/19 03:53:54;;;;;;;0.00;0.00;;;;;;;;;;4161172;28;20069;-49
2022/09/19 03:56:00;;;;;;;0.17;0.10;;;;;;;;;;4161168;28;20567;-49
2022/09/19 03:58:02;;;;;;;0.10;0.10;;;;;;;;;;4162461;28;20084;-51
2022/09/19 04:00:03;;;;;;;0.10;0.10;;;;;;;;;;4161268;28;20050;-49
2022/09/19 04:02:10;;;;;;;0.10;0.10;;;;;;;;;;4162166;28;20099;-47
2022/09/19 04:04:12;;;;;;;0.05;0.05;;;;;;;;;;4161129;28;20058;-49
2022/09/19 04:06:20;;;;;;;0.10;0.10;;;;;;;;;;4161249;28;20169;-52
2022/09/19 04:08:21;;;;;;;0.00;0.00;;;;;;;;;;4160900;28;20444;-49
2022/09/19 04:10:22;;;;;;;0.10;0.10;;;;;;;;;;4161129;28;20511;-50
2022/09/19 04:12:24;;;;;;;0.52;0.20;;;;;;;;;;4161933;28;20091;-49
2022/09/19 04:14:26;;;;;;;0.00;0.00;;;;;;;;;;4160781;28;20058;-49
2022/09/19 04:16:27;;;;;;;0.00;0.00;;;;;;;;;;4161505;28;20049;-48
2022/09/19 04:18:29;;;;;;;0.10;0.10;;;;;;;;;;4160631;28;20087;-48
2022/09/19 04:20:31;;;;;;;0.10;0.10;;;;;;;;;;4161106;28;20057;-50
2022/09/19 04:22:54;;;;;;;0.10;0.10;;;;;;;;;;4162726;28;20087;-48
2022/09/19 04:25:15;;;;;;;0.13;0.10;;;;;;;;;;4161162;28;20065;-48
2022/09/19 04:27:38;;;;;;;0.10;0.10;;;;;;;;;;4161610;28;20061;-50
2022/09/19 04:29:43;;;;;;;0.10;0.10;;;;;;;;;;4162578;28;20053;-50
2022/09/19 04:31:44;;;;;;;0.10;0.10;;;;;;;;;;4161211;28;20065;-50
2022/09/19 04:33:45;;;;;;;0.00;0.00;;;;;;;;;;4161919;28;20057;-50
2022/09/19 04:35:47;;;;;;;0.10;0.10;;;;;;;;;;4161216;28;20072;-47
2022/09/19 04:37:48;;;;;;;0.13;0.08;;;;;;;;;;4162227;28;20053;-48
2022/09/19 04:39:51;;;;;;;0.05;0.05;;;;;;;;;;4161107;28;20053;-47
2022/09/19 04:41:52;;;;;;;0.10;0.10;;;;;;;;;;4164320;28;20456;-45
2022/09/19 04:43:54;;;;;;;0.10;0.10;;;;;;;;;;4163901;28;20192;-46
2022/09/19 04:46:07;;;;;;;0.20;0.10;;;;;;;;;;4164395;28;20107;-47
2022/09/19 04:48:17;;;;;;;0.10;0.10;;;;;;;;;;4163700;28;20057;-47
2022/09/19 04:50:18;;;;;;;0.25;0.20;;;;;;;;;;4164136;28;20103;-47
2022/09/19 04:52:30;;;;;;;0.03;0.03;;;;;;;;;;4165666;28;20103;-48
2022/09/19 04:54:37;;;;;;;0.10;0.10;;;;;;;;;;4165581;28;20053;-49
2022/09/19 04:56:38;;;;;;;0.10;0.10;;;;;;;;;;4148997;28;20445;-48
2022/09/19 04:58:40;;;;;;;0.10;0.10;;;;;;;;;;4146462;28;20354;-48
2022/09/19 05:00:49;;;;;;;0.00;0.00;;;;;;;;;;4160958;28;20181;-46
2022/09/19 05:02:54;;;;;;;0.10;0.10;;;;;;;;;;4153508;28;20062;-47
2022/09/19 05:04:56;;;;;;;0.10;0.10;;;;;;;;;;4145123;28;20153;-49
2022/09/19 05:06:57;;;;;;;0.10;0.10;;;;;;;;;;4144033;28;20092;-47
2022/09/19 05:08:59;;;;;;;0.32;0.10;;;;;;;;;;4144915;28;20097;-46
2022/09/19 05:11:07;;;;;;;0.05;0.05;;;;;;;;;;4145316;28;20188;-46
2022/09/19 05:13:09;;;;;;;0.10;0.10;;;;;;;;;;4144605;28;20104;-48
2022/09/19 05:15:11;;;;;;;0.00;0.00;;;;;;;;;;4128790;28;20510;-47
2022/09/19 05:17:13;;;;;;;0.05;0.05;;;;;;;;;;4144428;28;20489;-48
2022/09/19 05:19:15;;;;;;;1.08;0.10;;;;;;;;;;4156921;28;20084;-46
2022/09/19 05:21:16;;;;;;;0.00;0.00;;;;;;;;;;4159976;28;20068;-47
2022/09/19 05:23:19;;;;;;;0.10;0.10;;;;;;;;;;4160891;28;20430;-47
2022/09/19 05:25:20;;;;;;;0.08;0.05;;;;;;;;;;4160849;28;20394;-47
2022/09/19 05:27:21;;;;;;;0.10;0.10;;;;;;;;;;4161111;28;20064;-47
2022/09/19 05:29:23;;;;;;;0.17;0.10;;;;;;;;;;4161110;28;20049;-48
2022/09/19 05:31:37;;;;;;;0.30;0.10;;;;;;;;;;4143426;28;20092;-48
2022/09/19 05:34:14;;;;;;;0.30;0.10;;;;;;;;;;4142267;28;20058;-47
2022/09/19 05:36:18;;;;;;;0.20;0.00;;;;;;;;;;4139093;28;20061;-49
2022/09/19 05:38:37;;;;;;;0.10;0.10;;;;;;;;;;4153694;28;20057;-48
2022/09/19 05:41:10;;;;;;;0.10;0.10;;;;;;;;;;4151804;28;20087;-47
2022/09/19 05:43:44;;;;;;;0.10;0.10;;;;;;;;;;4156701;28;20528;-48
2022/09/19 05:45:46;;;;;;;0.10;0.10;;;;;;;;;;4156535;28;20124;-48
2022/09/19 05:47:49;;;;;;;0.08;0.08;;;;;;;;;;4156231;28;20049;-48
2022/09/19 05:49:50;;;;;;;0.00;0.00;;;;;;;;;;4140475;28;20050;-46
2022/09/19 05:51:55;;;;;;;0.00;0.00;;;;;;;;;;4152338;28;20057;-47
2022/09/19 05:53:59;;;;;;;1.00;0.10;;;;;;;;;;4155415;28;20127;-48
2022/09/19 05:56:15;;;;;;;0.10;0.10;;;;;;;;;;4152659;28;20134;-48
2022/09/19 05:58:21;;;;;;;0.00;0.00;;;;;;;;;;4154565;28;20053;-47
2022/09/19 06:00:25;;;;;;;1.17;0.10;;;;;;;;;;4145506;28;20271;-45
2022/09/19 06:02:27;;;;;;;0.20;0.10;;;;;;;;;;4114661;28;20088;-44
2022/09/19 06:04:34;;;;;;;0.43;0.15;;;;;;;;;;4136756;28;20065;-45
2022/09/19 06:06:36;;;;;;;0.10;0.10;;;;;;;;;;4115214;28;20384;-44
2022/09/19 06:08:39;;;;;;;0.20;0.10;;;;;;;;;;4139022;28;20117;-46
2022/09/19 06:10:42;;;;;;;0.03;0.03;;;;;;;;;;4141443;28;20403;-44
2022/09/19 06:12:45;;;;;;;0.10;0.10;;;;;;;;;;4121837;28;20065;-46
2022/09/19 06:14:48;;;;;;;1.35;0.10;;;;;;;;;;4137642;28;20053;-45
2022/09/19 06:16:53;;;;;;;0.40;0.03;;;;;;;;;;4136488;28;20127;-44
2022/09/19 06:18:55;;;;;;;0.55;0.10;;;;;;;;;;4125207;28;20190;-44
2022/09/19 06:20:57;;;;;;;0.85;0.10;;;;;;;;;;4127206;28;20704;-44
2022/09/19 06:23:13;;;;;;;4.68;0.22;;;;;;;;;;4128482;28;21896;-46
2022/09/19 06:25:14;;;;;;;0.25;0.10;;;;;;;;;;4127350;28;20500;-45
2022/09/19 06:27:16;;;;;;;0.10;0.10;;;;;;;;;;4129960;28;21471;-45
2022/09/19 06:29:21;;;;;;;0.28;0.10;;;;;;;;;;4123167;28;20061;-45
2022/09/19 06:31:43;;;;;;;4.32;0.13;;;;;;;;;;4136457;28;20139;-46
2022/09/19 06:34:01;;;;;;;2.17;0.10;;;;;;;;;;4138601;28;20065;-48
2022/09/19 06:36:11;;;;;;;2.05;0.13;;;;;;;;;;4134508;28;20147;-48
2022/09/19 06:38:13;;;;;;;0.35;0.10;;;;;;;;;;4119370;28;20795;-48
2022/09/19 06:40:20;;;;;;;2.30;0.10;;;;;;;;;;4112739;28;20076;-46
2022/09/19 06:42:32;;;;;;;0.77;0.10;;;;;;;;;;4133160;28;20068;-44
2022/09/19 06:44:52;;;;;;;;;;;;;;;;;;4132738;28;21029;-45
2022/09/19 06:47:13;;;;;;;2.00;0.20;;;;;;;;;;4136344;28;21971;-48
2022/09/19 06:49:43;;;;;;;5.15;0.20;;;;;;;;;;4083970;28;20051;-44
2022/09/19 06:52:20;;;;;;;1.25;0.10;;;;;;;;;;4121675;28;20390;-46
2022/09/19 06:54:24;;;;;;;0.00;0.00;;;;;;;;;;4123738;28;20057;-46
2022/09/19 06:56:26;;;;;;;2.50;0.10;;;;;;;;;;4116654;28;20472;-45
2022/09/19 06:58:27;;;;;;;3.83;0.50;;;;;;;;;;4132085;28;20136;-46
2022/09/19 07:00:31;;;;;;;0.47;0.00;;;;;;;;;;4143339;28;20155;-45
2022/09/19 07:02:33;;;;;;;0.65;0.10;;;;;;;;;;4116199;28;20053;-46
2022/09/19 07:04:34;;;;;;;0.40;0.10;;;;;;;;;;4107223;28;20061;-49
2022/09/19 07:06:45;;;;;;;3.60;0.47;;;;;;;;;;4094615;28;20472;-50
2022/09/19 07:08:48;;;;;;;0.32;0.20;;;;;;;;;;4119180;28;20049;-47
2022/09/19 07:10:50;;;;;;;2.25;0.20;;;;;;;;;;4111800;28;22606;-46
2022/09/19 07:12:56;;;;;;;2.35;0.15;;;;;;;;;;4123717;28;20104;-46
2022/09/19 07:14:57;;;;;;;1.45;0.15;;;;;;;;;;4109943;28;20187;-47
2022/09/19 07:16:59;;;;;;;2.50;0.40;;;;;;;;;;4093801;28;20603;-47
2022/09/19 07:19:01;;;;;;;3.83;0.25;;;;;;;;;;4115358;28;20054;-46
2022/09/19 07:21:15;;;;;;;1.17;0.10;;;;;;;;;;4116787;28;20571;-48
2022/09/19 07:23:21;;;;;;;2.28;0.20;;;;;;;;;;4097810;28;20062;-49
2022/09/19 07:25:57;;;;;;;0.22;0.10;;;;;;;;;;4119906;28;20135;-48
2022/09/19 07:28:01;;;;;;;0.10;0.10;;;;;;;;;;4122479;28;20168;-45
2022/09/19 07:30:04;;;;;;;0.77;0.10;;;;;;;;;;4120153;28;20053;-46
2022/09/19 07:32:06;;;;;;;0.57;0.13;;;;;;;;;;4128095;28;20053;-48
2022/09/19 07:34:08;;;;;;;1.90;0.10;;;;;;;;;;4131037;28;20107;-46
2022/09/19 07:36:21;;;;;;;0.68;0.20;;;;;;;;;;4121253;28;20137;-47
2022/09/19 07:38:24;;;;;;;0.20;0.10;;;;;;;;;;4126339;28;20058;-47
2022/09/19 07:40:42;;;;;;;0.10;0.10;;;;;;;;;;4130396;28;20140;-48
2022/09/19 07:43:04;;;;;;;0.35;0.10;;;;;;;;;;4124981;28;20107;-46
2022/09/19 07:45:25;;;;;;;0.17;0.10;;;;;;;;;;4119474;28;20062;-46
2022/09/19 07:47:48;;;;;;;1.80;0.10;;;;;;;;;;4127610;28;20057;-45
2022/09/19 07:50:06;;;;;;;0.08;0.00;;;;;;;;;;4130168;28;20076;-47
2022/09/19 07:52:10;;;;;;;2.05;0.10;;;;;;;;;;4127716;28;20547;-46
2022/09/19 07:54:12;;;;;;;0.38;0.10;;;;;;;;;;4126363;28;20057;-45
2022/09/19 07:56:15;;;;;;;2.22;0.10;;;;;;;;;;4121843;28;20432;-48
2022/09/19 07:58:17;;;;;;;0.68;0.10;;;;;;;;;;4094911;28;20077;-45
2022/09/19 08:00:26;;;;;;;0.65;0.10;;;;;;;;;;4135671;28;20052;-47
2022/09/19 08:02:27;;;;;;;1.65;0.10;;;;;;;;;;4109052;28;20139;-46
2022/09/19 08:04:29;;;;;;;2.00;0.10;;;;;;;;;;4111603;28;20150;-47
2022/09/19 08:06:33;;;;;;;1.58;0.20;;;;;;;;;;4127627;28;20698;-46
2022/09/19 08:08:37;;;;;;;1.65;0.10;;;;;;;;;;4130956;28;20108;-45
2022/09/19 08:10:46;;;;;;;0.20;0.10;;;;;;;;;;4129687;28;20575;-47
2022/09/19 08:12:48;;;;;;;0.85;0.10;;;;;;;;;;4129909;28;20932;-47
2022/09/19 08:14:50;;;;;;;8.70;0.38;;;;;;;;;;4121700;28;20095;-48
2022/09/19 08:16:51;;;;;;;2.20;0.25;;;;;;;;;;4129675;28;20057;-46
2022/09/19 08:18:53;;;;;;;3.97;0.15;;;;;;;;;;4119305;28;20190;-45
2022/09/19 08:20:55;;;;;;;0.10;0.10;;;;;;;;;;4126343;28;20421;-46
2022/09/19 08:23:08;;;;;;;1.98;0.25;;;;;;;;;;4143892;28;20418;-52
2022/09/19 08:25:10;;;;;;;0.15;0.00;;;;;;;;;;4113022;28;20053;-46
2022/09/19 08:27:14;;;;;;;0.28;0.10;;;;;;;;;;4117541;28;20680;-46
2022/09/19 08:29:16;;;;;;;0.40;0.13;;;;;;;;;;4126763;28;20576;-46
2022/09/19 08:31:30;;;;;;;1.38;0.10;;;;;;;;;;4124231;28;20520;-48
2022/09/19 08:33:31;;;;;;;0.65;0.20;;;;;;;;;;4126779;28;20746;-47
2022/09/19 08:35:37;;;;;;;0.65;0.10;;;;;;;;;;4128601;28;20057;-47
2022/09/19 08:37:41;;;;;;;0.32;0.10;;;;;;;;;;4110963;28;20143;-46
2022/09/19 08:40:15;;;;;;;2.00;0.10;;;;;;;;;;4125705;28;20057;-45
2022/09/19 08:42:18;;;;;;;0.73;0.10;;;;;;;;;;4130606;28;20061;-45
2022/09/19 08:44:37;;;;;;;0.57;0.10;;;;;;;;;;4125428;28;20412;-48
2022/09/19 08:46:46;;;;;;;0.63;0.50;;;;;;;;;;4133011;28;20570;-49
2022/09/19 08:49:04;;;;;;;0.50;0.10;;;;;;;;;;4132552;28;20056;-46
2022/09/19 08:51:29;;;;;;;0.70;0.08;;;;;;;;;;4115014;28;20540;-46
2022/09/19 08:53:37;;;;;;;1.80;0.05;;;;;;;;;;4102648;28;20069;-46
2022/09/19 08:55:41;;;;;;;1.10;0.10;;;;;;;;;;4117761;28;20064;-46
2022/09/19 08:57:55;;;;;;;1.90;0.30;;;;;;;;;;4100594;28;20145;-50
2022/09/19 09:00:05;;;;;;;0.20;0.10;;;;;;;;;;4117155;28;21259;-46
2022/09/19 09:02:28;;;;;;;1.95;0.40;;;;;;;;;;4104497;28;20154;-47
2022/09/19 09:04:40;;;;;;;1.98;0.13;;;;;;;;;;4116329;28;22510;-48
2022/09/19 09:06:58;;;;;;;3.40;0.20;;;;;;;;;;4092663;28;20153;-45
2022/09/19 09:09:30;;;;;;;2.60;0.10;;;;;;;;;;4127587;28;21199;-45
2022/09/19 09:12:01;;;;;;;2.80;0.28;;;;;;;;;;4128705;28;20155;-46
2022/09/19 09:14:22;;;;;;;0.50;0.10;;;;;;;;;;4101894;28;21151;-45
2022/09/19 09:16:28;;;;;;;1.42;0.10;;;;;;;;;;4115900;28;20558;-45
2022/09/19 09:18:54;;;;;;;3.85;0.17;;;;;;;;;;4121778;28;20068;-47
2022/09/19 09:20:55;;;;;;;0.20;0.10;;;;;;;;;;4130422;28;20127;-47
2022/09/19 09:23:14;;;;;;;1.67;0.10;;;;;;;;;;4123577;28;20624;-46
2022/09/19 09:25:30;;;;;;;1.02;0.20;;;;;;;;;;4105792;28;20100;-45
2022/09/19 09:27:41;;;;;;;4.25;0.10;;;;;;;;;;4112697;28;20098;-44
2022/09/19 09:29:53;;;;;;;0.20;0.15;;;;;;;;;;4112095;28;22184;-45
2022/09/19 09:32:07;;;;;;;1.55;0.55;;;;;;;;;;4126839;28;20135;-44
2022/09/19 09:34:21;;;;;;;0.63;0.10;;;;;;;;;;4118499;28;20057;-46
2022/09/19 09:36:28;;;;;;;0.73;0.40;;;;;;;;;;4117063;28;20472;-47
2022/09/19 09:38:50;;;;;;;4.63;0.20;;;;;;;;;;4110344;28;21004;-51
2022/09/19 09:43:32;;;;;;;0.40;0.20;;;;;;;;;;4138137;28;20112;-49
2022/09/19 09:45:45;;;;;;;0.85;0.13;;;;;;;;;;4133441;28;20096;-50
2022/09/19 09:48:15;;;;;;;3.30;0.10;;;;;;;;;;4131933;28;20107;-48
2022/09/19 09:50:35;;;;;;;0.20;0.10;;;;;;;;;;4128749;28;20058;-48
2022/09/19 09:52:47;;;;;;;1.40;0.10;;;;;;;;;;4133356;28;20064;-48
2022/09/19 09:57:39;;;;;;;0.47;0.13;;;;;;;;;;4130491;28;20175;-48
2022/09/19 10:05:16;;;;;;;1.75;0.10;;;;;;;;;;4137531;28;20912;-47
2022/09/19 10:07:33;;;;;;;3.00;0.10;;;;;;;;;;4095103;28;20081;-45
2022/09/19 10:09:37;;;;;;;0.55;0.10;;;;;;;;;;4131350;28;20115;-47
2022/09/19 10:11:56;;;;;;;0.55;0.20;;;;;;;;;;4120500;28;20189;-47
2022/09/19 10:14:01;;;;;;;0.10;0.10;;;;;;;;;;4137063;28;20057;-46
2022/09/19 10:16:04;;;;;;;0.47;0.20;;;;;;;;;;4119718;28;20374;-45
2022/09/19 10:18:14;;;;;;;0.17;0.10;;;;;;;;;;4108047;28;20062;-49
2022/09/19 10:20:32;;;;;;;0.63;0.10;;;;;;;;;;4121943;28;20080;-48
2022/09/19 10:22:34;;;;;;;0.93;0.30;;;;;;;;;;4115626;28;20143;-50
2022/09/19 10:24:40;;;;;;;3.20;0.10;;;;;;;;;;4138244;28;20494;-46
2022/09/19 10:26:42;;;;;;;0.88;0.20;;;;;;;;;;4125222;28;20472;-46
2022/09/19 10:28:53;;;;;;;1.02;0.20;;;;;;;;;;4129950;28;20099;-48
2022/09/19 10:31:34;;;;;;;0.35;0.10;;;;;;;;;;4107075;28;20603;-50
2022/09/19 10:33:50;;;;;;;2.30;0.10;;;;;;;;;;4118907;28;20386;-46
2022/09/19 10:36:07;;;;;;;0.40;0.10;;;;;;;;;;4123729;28;21126;-46
2022/09/19 10:38:16;;;;;;;1.30;0.30;;;;;;;;;;4118917;28;20107;-48
2022/09/19 10:40:19;;;;;;;1.00;0.20;;;;;;;;;;4126336;28;20054;-48
2022/09/19 10:42:37;;;;;;;0.52;0.10;;;;;;;;;;4125974;28;20060;-48
2022/09/19 10:44:39;;;;;;;2.97;0.30;;;;;;;;;;4124518;28;20104;-43
2022/09/19 10:46:49;;;;;;;1.35;0.28;;;;;;;;;;4115474;28;20058;-44
2022/09/19 10:49:19;;;;;;;3.65;0.20;;;;;;;;;;4131916;28;20062;-47
2022/09/19 10:51:20;;;;;;;0.20;0.10;;;;;;;;;;4121870;28;20120;-46
2022/09/19 10:53:27;;;;;;;1.85;0.20;;;;;;;;;;4132661;28;20053;-50
2022/09/19 10:55:32;;;;;;;0.57;0.20;;;;;;;;;;4130921;28;20079;-47
2022/09/19 10:57:59;;;;;;;0.40;0.10;;;;;;;;;;4130910;28;21573;-44
2022/09/19 11:00:02;;;;;;;1.33;0.20;;;;;;;;;;4131761;28;20596;-46
2022/09/19 11:02:08;;;;;;;1.10;0.20;;;;;;;;;;4108207;28;20107;-46
2022/09/19 11:04:12;;;;;;;1.98;0.10;;;;;;;;;;4115452;28;20143;-46
2022/09/19 11:06:16;;;;;;;0.70;0.20;;;;;;;;;;4119643;28;20664;-44
2022/09/19 11:08:26;;;;;;;0.30;0.10;;;;;;;;;;4136866;28;20484;-47
2022/09/19 11:10:40;;;;;;;0.70;0.10;;;;;;;;;;4133319;28;20049;-46
2022/09/19 11:13:04;;;;;;;0.30;0.20;;;;;;;;;;4114635;28;20088;-44
2022/09/19 11:15:15;;;;;;;0.98;0.40;;;;;;;;;;4129668;28;20057;-44
2022/09/19 11:17:31;;;;;;;0.30;0.20;;;;;;;;;;4132465;28;20057;-44
2022/09/19 11:20:11;;;;;;;2.88;0.30;;;;;;;;;;4129148;28;20130;-47
2022/09/19 11:22:31;;;;;;;0.93;0.30;;;;;;;;;;4129001;28;20053;-45
2022/09/19 11:25:01;;;;;;;1.67;0.20;;;;;;;;;;4136478;28;20061;-45
2022/09/19 11:27:21;;;;;;;0.90;0.40;;;;;;;;;;4107550;28;20627;-44
2022/09/19 11:29:51;;;;;;;2.13;0.40;;;;;;;;;;4130859;28;20506;-47
2022/09/19 11:32:34;;;;;;;0.45;0.32;;;;;;;;;;4124699;28;20088;-45
2022/09/19 11:34:53;;;;;;;0.95;0.20;;;;;;;;;;4113237;28;20946;-50
2022/09/19 11:37:21;;;;;;;0.93;0.30;;;;;;;;;;4122682;28;20455;-47
2022/09/19 11:39:28;;;;;;;0.90;0.30;;;;;;;;;;4134122;28;20064;-50
2022/09/19 11:42:07;;;;;;;0.20;0.20;;;;;;;;;;4131353;28;21360;-47
2022/09/19 11:44:28;;;;;;;0.52;0.20;;;;;;;;;;4131049;28;20626;-45
2022/09/19 11:46:57;;;;;;;0.55;0.20;;;;;;;;;;4128164;28;20061;-49
2022/09/19 11:49:07;;;;;;;1.10;0.10;;;;;;;;;;4108247;28;20132;-48
2022/09/19 11:51:19;;;;;;;0.70;0.30;;;;;;;;;;4150552;28;20111;-50
2022/09/19 11:53:31;;;;;;;5.15;0.20;;;;;;;;;;4139574;28;20057;-50
2022/09/19 11:55:49;;;;;;;0.30;0.30;;;;;;;;;;4120191;28;20666;-48
2022/09/19 11:58:33;;;;;;;0.43;0.10;;;;;;;;;;4111347;28;20058;-49
2022/09/19 12:01:08;;;;;;;2.58;0.20;;;;;;;;;;4142763;28;20959;-47
2022/09/19 12:03:19;;;;;;;0.10;0.10;;;;;;;;;;4111341;28;20472;-46
2022/09/19 12:05:49;;;;;;;0.80;0.30;;;;;;;;;;4137446;28;20115;-46
2022/09/19 12:08:15;;;;;;;1.85;0.20;;;;;;;;;;4153358;28;20087;-47
2022/09/19 12:10:24;;;;;;;0.68;0.22;;;;;;;;;;4129129;28;20116;-47
2022/09/19 12:12:27;;;;;;;0.55;0.20;;;;;;;;;;4136613;28;20210;-47
2022/09/19 12:15:22;;;;;;;0.77;0.45;;;;;;;;;;4112361;28;20057;-45
2022/09/19 12:17:42;;;;;;;1.20;0.10;;;;;;;;;;4115335;28;20053;-47
2022/09/19 12:19:57;;;;;;;0.20;0.17;;;;;;;;;;4118880;28;20108;-46
2022/09/19 12:22:01;;;;;;;0.35;0.20;;;;;;;;;;4128760;28;20067;-48
2022/09/19 12:26:34;;;;;;;1.35;0.30;;;;;;;;;;4122894;28;20115;-49
2022/09/19 12:28:40;;;;;;;1.75;0.10;;;;;;;;;;4122968;28;20057;-47
2022/09/19 12:30:44;;;;;;;0.10;0.10;;;;;;;;;;4135184;28;20124;-44
2022/09/19 12:33:04;;;;;;;4.72;0.32;;;;;;;;;;4099650;28;20529;-48
2022/09/19 12:35:18;;;;;;;3.22;0.30;;;;;;;;;;4100076;28;20532;-47
2022/09/19 12:37:54;;;;;;;0.90;0.30;;;;;;;;;;4110310;28;20635;-44
2022/09/19 12:40:12;;;;;;;0.43;0.20;;;;;;;;;;4113786;28;22325;-45
2022/09/19 12:42:32;;;;;;;0.43;0.10;;;;;;;;;;4126092;28;20057;-46
2022/09/19 12:44:42;;;;;;;2.17;0.20;;;;;;;;;;4116465;28;20053;-47
2022/09/19 12:46:51;;;;;;;0.90;0.10;;;;;;;;;;4115168;28;20627;-44
2022/09/19 12:49:14;;;;;;;0.00;0.00;;;;;;;;;;4129198;28;20181;-44
2022/09/19 12:51:26;;;;;;;1.13;0.20;;;;;;;;;;4137678;28;20472;-46
2022/09/19 12:53:27;;;;;;;0.85;0.15;;;;;;;;;;4138577;28;20356;-44
2022/09/19 12:55:38;;;;;;;3.10;0.10;;;;;;;;;;4137855;28;20559;-43
2022/09/19 12:57:50;;;;;;;0.98;0.20;;;;;;;;;;4134833;28;20599;-46
2022/09/19 12:59:54;;;;;;;0.30;0.10;;;;;;;;;;4131692;28;20107;-47
2022/09/19 13:02:22;;;;;;;0.55;0.10;;;;;;;;;;4126386;28;21041;-47
2022/09/19 13:04:29;;;;;;;0.75;0.10;;;;;;;;;;4134217;28;20341;-47
2022/09/19 13:06:36;;;;;;;2.08;0.10;;;;;;;;;;4133836;28;20408;-46
2022/09/19 13:08:48;;;;;;;0.22;0.08;;;;;;;;;;4134581;28;20088;-49
2022/09/19 13:10:57;;;;;;;0.15;0.13;;;;;;;;;;4142827;28;20465;-46
2022/09/19 13:13:47;;;;;;;0.20;0.10;;;;;;;;;;4136447;28;20060;-50
2022/09/19 13:15:56;;;;;;;1.92;0.57;;;;;;;;;;4136435;28;20104;-49
2022/09/19 13:23:38;;;;;;;0.65;0.20;;;;;;;;;;4140678;28;20057;-49